createdAt,value
2018-09-11T00:00:09.485Z,3.10
2018-09-11T00:02:37.771Z,3.10
2018-09-11T00:05:06.143Z,3.13
2018-09-11T00:07:34.470Z,3.17
2018-09-11T00:10:02.762Z,3.40
2018-09-11T00:12:31.005Z,2.90
2018-09-11T00:14:59.309Z,3.00
2018-09-11T00:17:27.572Z,2.77
2018-09-11T00:19:55.841Z,3.13
2018-09-11T00:22:24.101Z,2.77
2018-09-11T00:24:52.518Z,2.60
2018-09-11T00:27:21.993Z,3.03
2018-09-11T00:29:50.406Z,2.63
2018-09-11T00:32:18.682Z,3.10
2018-09-11T00:34:46.958Z,2.70
2018-09-11T00:37:15.266Z,2.87
2018-09-11T00:39:43.522Z,2.83
2018-09-11T00:42:11.780Z,3.07
2018-09-11T00:44:40.134Z,2.80
2018-09-11T00:47:09.006Z,2.80
2018-09-11T00:49:37.298Z,3.17
2018-09-11T00:52:05.579Z,3.00
2018-09-11T00:54:33.878Z,2.60
2018-09-11T00:57:02.159Z,2.90
2018-09-11T00:59:30.418Z,2.77
2018-09-11T01:01:58.776Z,2.80
2018-09-11T01:04:27.107Z,2.60
2018-09-11T01:06:55.450Z,2.90
2018-09-11T01:09:24.289Z,2.50
2018-09-11T01:11:52.555Z,2.90
2018-09-11T01:14:20.958Z,2.93
2018-09-11T01:16:49.354Z,2.60
2018-09-11T01:19:17.728Z,3.00
2018-09-11T01:21:46.015Z,2.50
2018-09-11T01:24:14.378Z,2.93
2018-09-11T01:26:42.694Z,2.40
2018-09-11T01:29:10.986Z,2.53
2018-09-11T01:31:39.250Z,2.83
2018-09-11T01:34:07.762Z,2.40
2018-09-11T01:36:36.118Z,2.43
2018-09-11T01:39:06.326Z,2.40
2018-09-11T01:41:34.711Z,2.50
2018-09-11T01:44:03.022Z,2.77
2018-09-11T01:46:31.325Z,2.50
2018-09-11T01:48:59.623Z,2.90
2018-09-11T01:51:27.881Z,2.90
2018-09-11T01:53:57.206Z,2.47
2018-09-11T01:56:25.475Z,2.67
2018-09-11T01:58:53.954Z,2.60
2018-09-11T02:01:22.248Z,2.00
2018-09-11T02:03:50.705Z,2.63
2018-09-11T02:06:19.006Z,2.00
2018-09-11T02:08:47.262Z,2.40
2018-09-11T02:11:15.642Z,2.33
2018-09-11T02:13:43.953Z,2.10
2018-09-11T02:16:12.306Z,2.30
2018-09-11T02:18:40.558Z,2.33
2018-09-11T02:21:08.854Z,2.30
2018-09-11T02:23:37.270Z,2.63
2018-09-11T02:26:05.549Z,2.50
2018-09-11T02:28:33.898Z,2.97
2018-09-11T02:31:02.158Z,2.23
2018-09-11T02:33:30.450Z,2.17
2018-09-11T02:35:59.804Z,2.60
2018-09-11T02:38:28.165Z,1.80
2018-09-11T02:40:56.499Z,2.33
2018-09-11T02:43:24.801Z,2.00
2018-09-11T02:45:53.112Z,2.40
2018-09-11T02:48:21.375Z,2.17
2018-09-11T02:50:49.637Z,2.23
2018-09-11T02:53:17.950Z,2.20
2018-09-11T02:55:46.250Z,2.30
2018-09-11T02:58:14.642Z,2.03
2018-09-11T03:00:42.927Z,2.33
2018-09-11T03:03:11.307Z,2.50
2018-09-11T03:05:39.650Z,2.03
2018-09-11T03:08:07.926Z,2.50
2018-09-11T03:10:36.242Z,2.80
2018-09-11T03:13:04.550Z,2.40
2018-09-11T03:15:33.394Z,2.13
2018-09-11T03:18:01.634Z,2.37
2018-09-11T03:20:29.922Z,2.00
2018-09-11T03:22:58.265Z,2.40
2018-09-11T03:25:26.610Z,2.30
2018-09-11T03:27:54.858Z,2.20
2018-09-11T03:30:23.147Z,2.03
2018-09-11T03:32:51.478Z,2.10
2018-09-11T03:35:19.790Z,2.40
2018-09-11T03:37:48.051Z,2.10
2018-09-11T03:40:16.334Z,1.97
2018-09-11T03:42:44.656Z,2.03
2018-09-11T03:45:13.015Z,2.10
2018-09-11T03:47:41.254Z,2.00
2018-09-11T03:50:09.543Z,2.20
2018-09-11T03:52:37.919Z,2.40
2018-09-11T03:55:06.666Z,1.90
2018-09-11T03:57:35.337Z,1.70
2018-09-11T04:00:03.890Z,2.13
2018-09-11T04:02:32.239Z,2.20
2018-09-11T04:05:00.515Z,2.50
2018-09-11T04:07:28.810Z,2.37
2018-09-11T04:09:57.091Z,1.93
2018-09-11T04:12:25.491Z,2.20
2018-09-11T04:14:53.851Z,1.90
2018-09-11T04:17:26.543Z,2.50
2018-09-11T04:19:54.847Z,2.50
2018-09-11T04:22:23.154Z,2.12
2018-09-11T04:24:51.408Z,2.30
2018-09-11T04:27:19.673Z,2.13
2018-09-11T04:29:47.926Z,2.07
2018-09-11T04:32:16.191Z,2.37
2018-09-11T04:34:44.479Z,2.30
2018-09-11T04:37:12.739Z,2.30
2018-09-11T04:39:40.999Z,2.00
2018-09-11T04:42:09.294Z,2.17
2018-09-11T04:44:37.547Z,2.33
2018-09-11T04:47:06.115Z,2.30
2018-09-11T04:49:34.367Z,2.07
2018-09-11T04:52:02.636Z,2.03
2018-09-11T04:54:30.907Z,1.80
2018-09-11T04:56:59.270Z,2.10
2018-09-11T04:59:27.551Z,1.95
2018-09-11T05:01:55.853Z,2.30
2018-09-11T05:04:24.158Z,1.80
2018-09-11T05:06:52.766Z,1.70
2018-09-11T05:09:21.015Z,1.87
2018-09-11T05:11:49.306Z,1.90
2018-09-11T05:14:17.555Z,2.07
2018-09-11T05:16:45.822Z,2.10
2018-09-11T05:19:14.380Z,1.93
2018-09-11T05:21:42.618Z,1.67
2018-09-11T05:24:10.926Z,1.30
2018-09-11T05:26:39.307Z,2.00
2018-09-11T05:29:07.770Z,2.13
2018-09-11T05:31:36.043Z,2.07
2018-09-11T05:34:04.298Z,1.70
2018-09-11T05:36:32.562Z,1.67
2018-09-11T05:39:00.918Z,1.70
2018-09-11T05:41:29.230Z,1.60
2018-09-11T05:43:57.470Z,2.10
2018-09-11T05:46:25.795Z,2.10
2018-09-11T05:48:54.114Z,1.80
2018-09-11T05:51:22.431Z,2.10
2018-09-11T05:53:50.713Z,2.20
2018-09-11T05:56:18.991Z,1.80
2018-09-11T05:58:47.313Z,1.63
2018-09-11T06:01:15.710Z,2.40
2018-09-11T06:03:44.056Z,1.23
2018-09-11T06:06:12.407Z,2.37
2018-09-11T06:08:40.707Z,1.70
2018-09-11T06:11:09.165Z,2.37
2018-09-11T06:13:37.469Z,1.90
2018-09-11T06:16:05.859Z,2.10
2018-09-11T06:18:34.182Z,1.83
2018-09-11T06:21:02.526Z,1.90
2018-09-11T06:23:30.903Z,2.00
2018-09-11T06:25:59.243Z,2.00
2018-09-11T06:28:27.570Z,1.70
2018-09-11T06:30:55.891Z,1.93
2018-09-11T06:33:24.206Z,1.53
2018-09-11T06:35:52.583Z,2.00
2018-09-11T06:38:21.022Z,1.90
2018-09-11T06:40:49.350Z,1.87
2018-09-11T06:43:17.692Z,1.80
2018-09-11T06:45:47.158Z,2.20
2018-09-11T06:48:15.486Z,1.90
2018-09-11T06:50:43.778Z,2.23
2018-09-11T06:53:12.126Z,2.07
2018-09-11T06:55:40.442Z,1.80
2018-09-11T06:58:08.731Z,1.90
2018-09-11T07:00:37.019Z,1.50
2018-09-11T07:03:05.514Z,1.70
2018-09-11T07:05:33.794Z,1.83
2018-09-11T07:08:02.102Z,1.47
2018-09-11T07:10:30.417Z,2.00
2018-09-11T07:12:58.728Z,1.90
2018-09-11T07:15:27.011Z,2.13
2018-09-11T07:17:55.406Z,1.47
2018-09-11T07:20:23.788Z,1.90
2018-09-11T07:22:51.951Z,1.73
2018-09-11T07:25:20.309Z,1.70
2018-09-11T07:27:49.483Z,2.00
2018-09-11T07:30:17.837Z,2.13
2018-09-11T07:32:46.067Z,1.67
2018-09-11T07:35:14.342Z,1.73
2018-09-11T07:37:42.676Z,2.00
2018-09-11T07:40:10.939Z,2.00
2018-09-11T07:42:39.244Z,1.67
2018-09-11T07:45:07.595Z,1.87
2018-09-11T07:47:35.931Z,1.60
2018-09-11T07:50:04.230Z,1.93
2018-09-11T07:52:32.545Z,1.93
2018-09-11T07:55:00.827Z,1.83
2018-09-11T07:57:29.193Z,1.83
2018-09-11T07:59:57.384Z,1.80
2018-09-11T08:02:25.683Z,1.75
2018-09-11T08:04:53.933Z,1.30
2018-09-11T08:07:22.215Z,2.00
2018-09-11T08:09:51.043Z,2.13
2018-09-11T08:12:19.340Z,1.73
2018-09-11T08:14:47.631Z,1.93
2018-09-11T08:17:15.899Z,1.90
2018-09-11T08:19:44.215Z,1.53
2018-09-11T08:22:12.479Z,2.30
2018-09-11T08:24:40.746Z,1.93
2018-09-11T08:27:09.003Z,1.77
2018-09-11T08:29:37.311Z,2.00
2018-09-11T08:32:05.594Z,1.77
2018-09-11T08:34:33.886Z,1.60
2018-09-11T08:37:02.199Z,2.17
2018-09-11T08:39:30.488Z,1.97
2018-09-11T08:41:58.747Z,1.55
2018-09-11T08:44:27.077Z,1.60
2018-09-11T08:46:55.471Z,1.40
2018-09-11T08:50:48.426Z,1.67
2018-09-11T08:53:16.726Z,1.63
2018-09-11T08:55:44.998Z,1.93
2018-09-11T08:58:13.288Z,1.87
2018-09-11T09:00:41.631Z,1.73
2018-09-11T09:03:09.937Z,1.65
2018-09-11T09:05:38.303Z,1.80
2018-09-11T09:08:06.699Z,1.50
2018-09-11T09:10:34.986Z,1.52
2018-09-11T09:13:03.302Z,2.00
2018-09-11T09:15:31.623Z,1.40
2018-09-11T09:17:59.918Z,1.60
2018-09-11T09:20:28.218Z,1.90
2018-09-11T09:22:56.514Z,1.80
2018-09-11T09:25:24.817Z,1.67
2018-09-11T09:27:53.129Z,1.90
2018-09-11T09:30:21.458Z,1.40
2018-09-11T09:32:49.734Z,1.50
2018-09-11T09:35:18.034Z,1.57
2018-09-11T09:37:46.426Z,1.67
2018-09-11T09:40:14.855Z,1.47
2018-09-11T09:42:43.171Z,1.63
2018-09-11T09:45:11.504Z,1.70
2018-09-11T09:47:39.822Z,1.90
2018-09-11T09:50:08.224Z,1.67
2018-09-11T09:52:36.609Z,1.90
2018-09-11T09:55:04.941Z,1.53
2018-09-11T09:57:33.359Z,1.50
2018-09-11T10:00:01.679Z,1.47
2018-09-11T10:02:30.915Z,1.43
2018-09-11T10:04:59.262Z,1.27
2018-09-11T10:07:27.458Z,1.60
2018-09-11T10:09:55.829Z,1.63
2018-09-11T10:12:24.155Z,1.63
2018-09-11T10:14:52.431Z,1.40
2018-09-11T10:17:20.770Z,1.60
2018-09-11T10:19:49.047Z,1.80
2018-09-11T10:22:17.402Z,1.70
2018-09-11T10:24:45.728Z,1.40
2018-09-11T10:27:14.171Z,1.65
2018-09-11T10:29:42.510Z,1.40
2018-09-11T10:32:10.810Z,1.50
2018-09-11T10:34:39.127Z,1.70
2018-09-11T10:37:07.493Z,1.57
2018-09-11T10:39:35.764Z,1.30
2018-09-11T10:42:04.175Z,1.40
2018-09-11T10:44:32.483Z,1.40
2018-09-11T10:47:00.807Z,1.63
2018-09-11T10:49:29.094Z,1.43
2018-09-11T10:51:58.370Z,1.57
2018-09-11T10:54:26.643Z,1.30
2018-09-11T10:56:54.906Z,1.57
2018-09-11T10:59:23.190Z,1.60
2018-09-11T11:01:51.547Z,2.63
2018-09-11T11:04:19.917Z,1.57
2018-09-11T11:06:48.207Z,1.90
2018-09-11T11:09:16.479Z,1.43
2018-09-11T11:11:44.743Z,1.80
2018-09-11T11:14:13.023Z,1.70
2018-09-11T11:16:41.301Z,1.77
2018-09-11T11:19:09.567Z,1.40
2018-09-11T11:21:37.887Z,1.37
2018-09-11T11:24:06.193Z,1.67
2018-09-11T11:26:34.479Z,1.50
2018-09-11T11:29:02.791Z,1.43
2018-09-11T11:31:31.088Z,1.60
2018-09-11T11:33:59.362Z,1.50
2018-09-11T11:36:27.717Z,1.80
2018-09-11T11:38:55.894Z,1.33
2018-09-11T11:41:24.167Z,1.50
2018-09-11T11:43:52.459Z,1.63
2018-09-11T11:46:20.735Z,1.40
2018-09-11T11:48:48.985Z,1.23
2018-09-11T11:51:17.331Z,1.40
2018-09-11T11:53:45.638Z,1.80
2018-09-11T11:56:13.931Z,1.30
2018-09-11T11:58:42.208Z,1.60
2018-09-11T12:01:10.790Z,1.53
2018-09-11T12:03:39.087Z,1.50
2018-09-11T12:06:07.403Z,1.23
2018-09-11T12:08:35.687Z,1.53
2018-09-11T12:11:04.089Z,1.40
2018-09-11T12:13:32.363Z,1.40
2018-09-11T12:16:00.668Z,1.40
2018-09-11T12:18:28.939Z,1.20
2018-09-11T12:20:57.230Z,1.30
2018-09-11T12:23:25.502Z,1.67
2018-09-11T12:25:53.795Z,1.30
2018-09-11T12:28:22.098Z,1.60
2018-09-11T12:30:50.491Z,1.30
2018-09-11T12:33:18.850Z,1.60
2018-09-11T12:35:47.166Z,1.60
2018-09-11T12:38:15.478Z,1.40
2018-09-11T12:40:43.984Z,1.53
2018-09-11T12:43:12.286Z,1.40
2018-09-11T12:45:40.596Z,1.40
2018-09-11T12:48:09.250Z,1.13
2018-09-11T12:50:37.279Z,1.50
2018-09-11T12:53:05.726Z,1.73
2018-09-11T12:55:34.023Z,1.40
2018-09-11T12:58:02.319Z,1.60
2018-09-11T13:00:30.682Z,1.80
2018-09-11T13:02:58.984Z,1.50
2018-09-11T13:05:27.315Z,1.13
2018-09-11T13:07:55.619Z,1.40
2018-09-11T13:10:23.999Z,1.43
2018-09-11T13:12:52.318Z,1.80
2018-09-11T13:15:20.643Z,1.60
2018-09-11T13:17:49.025Z,1.90
2018-09-11T13:20:17.314Z,1.60
2018-09-11T13:22:45.618Z,1.90
2018-09-11T13:25:13.934Z,1.77
2018-09-11T13:27:42.262Z,1.43
2018-09-11T13:30:10.669Z,1.23
2018-09-11T13:32:39.003Z,1.40
2018-09-11T13:35:07.358Z,1.80
2018-09-11T13:37:35.824Z,1.33
2018-09-11T13:40:04.291Z,1.30
2018-09-11T13:42:32.705Z,1.30
2018-09-11T13:45:01.012Z,1.53
2018-09-11T13:47:29.507Z,1.70
2018-09-11T13:49:57.903Z,1.67
2018-09-11T13:52:26.242Z,1.72
2018-09-11T13:54:54.578Z,1.30
2018-09-11T13:57:22.862Z,1.50
2018-09-11T13:59:51.167Z,1.60
2018-09-11T14:02:19.923Z,1.80
2018-09-11T14:04:48.222Z,1.40
2018-09-11T14:07:16.623Z,1.37
2018-09-11T14:09:44.919Z,1.17
2018-09-11T14:12:13.235Z,1.27
2018-09-11T14:14:41.555Z,1.63
2018-09-11T14:17:09.874Z,1.50
2018-09-11T14:19:38.199Z,1.40
2018-09-11T14:22:06.868Z,1.30
2018-09-11T14:24:35.214Z,1.40
2018-09-11T14:27:03.534Z,1.50
2018-09-11T14:29:31.904Z,1.50
2018-09-11T14:32:00.268Z,1.70
2018-09-11T14:34:28.860Z,1.80
2018-09-11T14:36:57.263Z,1.73
2018-09-11T14:39:25.714Z,2.00
2018-09-11T14:41:53.998Z,1.93
2018-09-11T14:44:23.048Z,1.87
2018-09-11T14:46:51.391Z,1.73
2018-09-11T14:49:19.843Z,2.03
2018-09-11T14:51:48.463Z,1.63
2018-09-11T14:54:16.943Z,1.97
2018-09-11T14:56:45.422Z,1.70
2018-09-11T14:59:13.753Z,2.20
2018-09-11T15:01:42.170Z,1.83
2018-09-11T15:04:10.549Z,2.20
2018-09-11T15:06:39.138Z,1.80
2018-09-11T15:09:09.172Z,2.00
2018-09-11T15:11:37.614Z,2.47
2018-09-11T15:14:06.106Z,1.80
2018-09-11T15:16:34.524Z,1.80
2018-09-11T15:19:03.011Z,2.20
2018-09-11T15:21:31.439Z,2.50
2018-09-11T15:23:59.855Z,1.90
2018-09-11T15:26:28.163Z,1.80
2018-09-11T15:28:56.646Z,1.60
2018-09-11T15:31:25.018Z,2.07
2018-09-11T15:33:53.491Z,2.00
2018-09-11T15:36:21.807Z,1.90
2018-09-11T15:38:50.267Z,2.03
2018-09-11T15:41:18.830Z,2.13
2018-09-11T15:43:47.307Z,3.00
2018-09-11T15:46:15.587Z,2.67
2018-09-11T15:48:43.955Z,6.90
2018-09-11T15:51:12.246Z,14.27
2018-09-11T15:53:40.642Z,9.50
2018-09-11T15:56:09.138Z,19.40
2018-09-11T15:58:37.531Z,18.90
2018-09-11T16:01:06.031Z,12.20
2018-09-11T16:03:34.507Z,15.33
2018-09-11T16:06:02.839Z,13.48
2018-09-11T16:08:31.271Z,11.00
2018-09-11T16:10:59.887Z,10.80
2018-09-11T16:13:28.208Z,9.73
2018-09-11T16:15:56.628Z,9.13
2018-09-11T16:18:25.334Z,8.53
2018-09-11T16:20:53.817Z,8.33
2018-09-11T16:23:22.251Z,8.30
2018-09-11T16:25:50.628Z,7.40
2018-09-11T16:28:19.018Z,7.80
2018-09-11T16:30:47.351Z,6.55
2018-09-11T16:33:15.918Z,6.67
2018-09-11T16:35:44.486Z,7.43
2018-09-11T16:38:12.903Z,5.70
2018-09-11T16:40:41.187Z,6.00
2018-09-11T16:43:09.558Z,6.15
2018-09-11T16:45:37.914Z,5.27
2018-09-11T16:48:06.206Z,4.97
2018-09-11T16:50:34.481Z,4.97
2018-09-11T16:53:02.854Z,6.50
2018-09-11T16:55:31.158Z,7.93
2018-09-11T16:57:59.490Z,8.63
2018-09-11T17:00:27.811Z,13.57
2018-09-11T17:02:56.522Z,6.30
2018-09-11T17:05:24.815Z,7.20
2018-09-11T17:07:53.098Z,6.40
2018-09-11T17:10:21.402Z,6.12
2018-09-11T17:12:49.690Z,5.40
2018-09-11T17:15:17.967Z,4.97
2018-09-11T17:17:46.315Z,5.27
2018-09-11T17:20:14.875Z,5.07
2018-09-11T17:22:43.180Z,5.03
2018-09-11T17:25:11.522Z,4.90
2018-09-11T17:27:39.958Z,4.27
2018-09-11T17:30:08.339Z,4.27
2018-09-11T17:32:36.685Z,4.07
2018-09-11T17:35:05.267Z,4.70
2018-09-11T17:37:33.551Z,3.73
2018-09-11T17:40:02.005Z,3.70
2018-09-11T17:42:30.465Z,3.40
2018-09-11T17:44:58.824Z,3.67
2018-09-11T17:47:27.205Z,3.10
2018-09-11T17:49:55.583Z,3.70
2018-09-11T17:52:23.992Z,3.60
2018-09-11T17:54:52.415Z,3.33
2018-09-11T17:57:20.817Z,3.75
2018-09-11T17:59:49.260Z,3.10
2018-09-11T18:02:17.576Z,3.27
2018-09-11T18:04:45.959Z,2.73
2018-09-11T18:07:14.377Z,2.73
2018-09-11T18:09:42.759Z,2.80
2018-09-11T18:12:11.123Z,3.07
2018-09-11T18:14:39.478Z,2.80
2018-09-11T18:17:08.808Z,3.72
2018-09-11T18:19:37.123Z,2.53
2018-09-11T18:22:05.539Z,2.57
2018-09-11T18:24:33.999Z,2.80
2018-09-11T18:27:02.355Z,2.80
2018-09-11T18:29:30.808Z,2.30
2018-09-11T18:31:59.130Z,2.10
2018-09-11T18:34:27.547Z,3.10
2018-09-11T18:36:55.887Z,2.10
2018-09-11T18:39:24.190Z,2.80
2018-09-11T18:41:52.471Z,2.87
2018-09-11T18:44:20.868Z,2.53
2018-09-11T18:46:49.218Z,2.97
2018-09-11T18:49:17.555Z,2.80
2018-09-11T18:51:46.018Z,3.00
2018-09-11T18:54:14.303Z,2.60
2018-09-11T18:56:42.589Z,2.70
2018-09-11T18:59:10.855Z,2.53
2018-09-11T19:01:39.301Z,2.50
2018-09-11T19:04:07.647Z,2.47
2018-09-11T19:06:35.994Z,2.80
2018-09-11T19:09:06.153Z,3.03
2018-09-11T19:11:34.513Z,3.07
2018-09-11T19:14:02.832Z,2.40
2018-09-11T19:16:31.278Z,2.30
2018-09-11T19:18:59.674Z,2.50
2018-09-11T19:21:27.965Z,2.65
2018-09-11T19:23:56.260Z,2.70
2018-09-11T19:26:24.606Z,2.80
2018-09-11T19:28:53.003Z,2.57
2018-09-11T19:31:21.407Z,2.50
2018-09-11T19:33:49.771Z,2.22
2018-09-11T19:36:18.155Z,2.72
2018-09-11T19:38:46.471Z,2.43
2018-09-11T19:41:15.591Z,2.70
2018-09-11T19:43:44.038Z,2.40
2018-09-11T19:46:12.474Z,2.80
2018-09-11T19:48:40.791Z,2.53
2018-09-11T19:51:09.195Z,2.90
2018-09-11T19:53:37.550Z,2.67
2018-09-11T19:56:05.998Z,2.20
2018-09-11T19:58:34.319Z,2.03
2018-09-11T20:01:02.659Z,2.67
2018-09-11T20:03:31.132Z,2.77
2018-09-11T20:05:59.489Z,2.27
2018-09-11T20:08:27.847Z,2.20
2018-09-11T20:10:56.284Z,2.50
2018-09-11T20:13:24.669Z,2.00
2018-09-11T20:15:53.014Z,2.00
2018-09-11T20:18:21.334Z,2.30
2018-09-11T20:20:49.723Z,2.57
2018-09-11T20:23:19.020Z,2.80
2018-09-11T20:25:47.411Z,2.30
2018-09-11T20:28:15.831Z,2.93
2018-09-11T20:30:44.188Z,2.13
2018-09-11T20:33:12.499Z,2.20
2018-09-11T20:35:40.818Z,2.10
2018-09-11T20:38:09.164Z,2.43
2018-09-11T20:40:37.554Z,2.27
2018-09-11T20:43:05.996Z,2.50
2018-09-11T20:45:34.383Z,2.40
2018-09-11T20:48:02.727Z,2.10
2018-09-11T20:50:31.019Z,2.30
2018-09-11T20:52:59.362Z,2.10
2018-09-11T20:55:27.747Z,2.43
2018-09-11T20:57:56.139Z,2.77
2018-09-11T21:00:24.435Z,2.00
2018-09-11T21:02:52.732Z,2.47
2018-09-11T21:05:21.464Z,2.33
2018-09-11T21:07:49.750Z,2.13
2018-09-11T21:10:18.083Z,2.17
2018-09-11T21:12:46.381Z,2.80
2018-09-11T21:15:14.718Z,2.43
2018-09-11T21:17:43.030Z,2.63
2018-09-11T21:20:11.323Z,2.57
2018-09-11T21:22:39.644Z,2.10
2018-09-11T21:25:07.953Z,2.47
2018-09-11T21:27:36.276Z,2.30
2018-09-11T21:30:04.767Z,2.70
2018-09-11T21:32:33.107Z,2.57
2018-09-11T21:35:01.405Z,2.52
2018-09-11T21:37:29.762Z,2.97
2018-09-11T21:39:58.034Z,2.57
2018-09-11T21:42:26.487Z,2.83
2018-09-11T21:44:54.765Z,3.13
2018-09-11T21:47:23.092Z,3.20
2018-09-11T21:49:51.435Z,2.90
2018-09-11T21:52:19.830Z,2.90
2018-09-11T21:54:48.151Z,2.80
2018-09-11T21:57:16.482Z,3.47
2018-09-11T21:59:44.822Z,4.20
2018-09-11T22:02:13.140Z,3.20
2018-09-11T22:04:41.446Z,3.10
2018-09-11T22:07:09.827Z,2.70
2018-09-11T22:09:38.195Z,3.98
2018-09-11T22:12:06.575Z,3.10
2018-09-11T22:14:34.878Z,3.37
2018-09-11T22:17:03.254Z,3.40
2018-09-11T22:19:31.535Z,4.00
2018-09-11T22:21:59.860Z,3.52
2018-09-11T22:24:28.126Z,4.00
2018-09-11T22:26:56.424Z,4.00
2018-09-11T22:29:24.806Z,4.93
2018-09-11T22:31:53.114Z,4.57
2018-09-11T22:34:21.407Z,3.77
2018-09-11T22:36:49.706Z,3.57
2018-09-11T22:39:17.990Z,3.40
2018-09-11T22:41:46.327Z,4.00
2018-09-11T22:44:14.621Z,4.37
2018-09-11T22:46:42.942Z,3.70
2018-09-11T22:49:11.230Z,3.70
2018-09-11T22:51:39.570Z,3.53
2018-09-11T22:54:07.859Z,4.00
2018-09-11T22:56:36.211Z,3.37
2018-09-11T22:59:04.548Z,3.37
2018-09-11T23:01:32.815Z,3.60
2018-09-11T23:04:01.142Z,3.40
2018-09-11T23:06:29.526Z,3.53
2018-09-11T23:08:57.786Z,2.97
2018-09-11T23:11:26.092Z,3.77
2018-09-11T23:13:54.390Z,3.23
2018-09-11T23:16:22.673Z,3.40
2018-09-11T23:18:50.926Z,2.90
2018-09-11T23:21:19.211Z,3.37
2018-09-11T23:23:47.506Z,3.47
2018-09-11T23:26:15.823Z,3.40
2018-09-11T23:28:44.079Z,3.40
2018-09-11T23:31:12.340Z,3.10
2018-09-11T23:33:40.658Z,3.12
2018-09-11T23:36:08.946Z,3.67
2018-09-11T23:38:37.295Z,3.10
2018-09-11T23:41:05.699Z,3.03
2018-09-11T23:43:33.967Z,3.00
2018-09-11T23:46:02.223Z,3.20
2018-09-11T23:48:30.507Z,2.87
2018-09-11T23:50:58.771Z,3.60
2018-09-11T23:53:27.067Z,3.10
2018-09-11T23:55:55.319Z,2.43
2018-09-11T23:58:23.600Z,3.20
